sensor_id;sensor_type;location;lat;lon;timestamp;temperature;humidity
15355;DHT22;7777;52.254;9.618;2023-03-23T00:01:56;13.20;99.90
15355;DHT22;7777;52.254;9.618;2023-03-23T00:04:23;13.20;99.90
15355;DHT22;7777;52.254;9.618;2023-03-23T00:06:51;13.20;99.90
15355;DHT22;7777;52.254;9.618;2023-03-23T00:09:17;13.10;99.90
15355;DHT22;7777;52.254;9.618;2023-03-23T00:11:52;13.10;99.90
15355;DHT22;7777;52.254;9.618;2023-03-23T00:14:22;13.00;99.90
15355;DHT22;7777;52.254;9.618;2023-03-23T00:16:50;13.00;99.90
15355;DHT22;7777;52.254;9.618;2023-03-23T00:19:16;13.00;99.90
15355;DHT22;7777;52.254;9.618;2023-03-23T00:21:44;12.90;99.90
15355;DHT22;7777;52.254;9.618;2023-03-23T00:24:12;12.90;99.90
15355;DHT22;7777;52.254;9.618;2023-03-23T00:26:44;12.90;99.90
15355;DHT22;7777;52.254;9.618;2023-03-23T00:29:19;12.90;99.90
15355;DHT22;7777;52.254;9.618;2023-03-23T00:31:47;12.80;99.90
15355;DHT22;7777;52.254;9.618;2023-03-23T00:34:15;12.80;99.90
15355;DHT22;7777;52.254;9.618;2023-03-23T00:36:50;12.80;99.90
15355;DHT22;7777;52.254;9.618;2023-03-23T00:39:22;12.80;99.90
15355;DHT22;7777;52.254;9.618;2023-03-23T00:41:50;12.80;99.90
15355;DHT22;7777;52.254;9.618;2023-03-23T00:44:16;12.80;99.90
15355;DHT22;7777;52.254;9.618;2023-03-23T00:46:46;12.80;99.90
15355;DHT22;7777;52.254;9.618;2023-03-23T00:49:16;12.80;99.90
15355;DHT22;7777;52.254;9.618;2023-03-23T00:51:43;12.80;99.90
15355;DHT22;7777;52.254;9.618;2023-03-23T00:54:10;12.70;99.90
15355;DHT22;7777;52.254;9.618;2023-03-23T00:56:36;12.70;99.90
15355;DHT22;7777;52.254;9.618;2023-03-23T00:59:05;12.80;99.90
15355;DHT22;7777;52.254;9.618;2023-03-23T01:01:30;12.70;99.90
15355;DHT22;7777;52.254;9.618;2023-03-23T01:03:58;12.70;99.90
15355;DHT22;7777;52.254;9.618;2023-03-23T01:06:27;12.70;99.90
15355;DHT22;7777;52.254;9.618;2023-03-23T01:08:54;12.70;99.90
15355;DHT22;7777;52.254;9.618;2023-03-23T01:11:21;12.70;99.90
15355;DHT22;7777;52.254;9.618;2023-03-23T01:13:47;12.70;99.90
15355;DHT22;7777;52.254;9.618;2023-03-23T01:16:13;12.70;99.90
15355;DHT22;7777;52.254;9.618;2023-03-23T01:18:39;12.70;99.90
15355;DHT22;7777;52.254;9.618;2023-03-23T01:21:06;12.60;99.90
15355;DHT22;7777;52.254;9.618;2023-03-23T01:23:35;12.70;99.90
15355;DHT22;7777;52.254;9.618;2023-03-23T01:26:07;12.70;99.90
15355;DHT22;7777;52.254;9.618;2023-03-23T01:28:38;12.70;99.90
15355;DHT22;7777;52.254;9.618;2023-03-23T01:31:06;12.60;99.90
15355;DHT22;7777;52.254;9.618;2023-03-23T01:33:33;12.60;99.90
15355;DHT22;7777;52.254;9.618;2023-03-23T01:36:05;12.60;99.90
15355;DHT22;7777;52.254;9.618;2023-03-23T01:38:33;12.70;99.90
15355;DHT22;7777;52.254;9.618;2023-03-23T01:41:00;12.70;99.90
15355;DHT22;7777;52.254;9.618;2023-03-23T01:43:27;12.70;99.90
15355;DHT22;7777;52.254;9.618;2023-03-23T01:45:53;12.70;99.90
15355;DHT22;7777;52.254;9.618;2023-03-23T01:48:26;12.70;99.90
15355;DHT22;7777;52.254;9.618;2023-03-23T01:51:06;12.70;99.90
15355;DHT22;7777;52.254;9.618;2023-03-23T01:53:44;12.60;99.90
15355;DHT22;7777;52.254;9.618;2023-03-23T01:56:14;12.60;99.90
15355;DHT22;7777;52.254;9.618;2023-03-23T01:58:42;12.60;99.90
15355;DHT22;7777;52.254;9.618;2023-03-23T02:01:11;12.60;99.90
15355;DHT22;7777;52.254;9.618;2023-03-23T02:03:44;12.60;99.90
15355;DHT22;7777;52.254;9.618;2023-03-23T02:06:11;12.60;99.90
15355;DHT22;7777;52.254;9.618;2023-03-23T02:08:38;12.60;99.90
15355;DHT22;7777;52.254;9.618;2023-03-23T02:11:15;12.60;99.90
15355;DHT22;7777;52.254;9.618;2023-03-23T02:13:45;12.60;99.90
15355;DHT22;7777;52.254;9.618;2023-03-23T02:16:32;12.60;99.90
15355;DHT22;7777;52.254;9.618;2023-03-23T02:25:55;12.50;99.90
15355;DHT22;7777;52.254;9.618;2023-03-23T02:34:32;12.60;99.90
15355;DHT22;7777;52.254;9.618;2023-03-23T02:37:09;12.50;99.90
15355;DHT22;7777;52.254;9.618;2023-03-23T02:40:02;12.50;99.90
15355;DHT22;7777;52.254;9.618;2023-03-23T02:42:40;12.50;99.90
15355;DHT22;7777;52.254;9.618;2023-03-23T02:45:10;12.50;99.90
15355;DHT22;7777;52.254;9.618;2023-03-23T02:47:38;12.50;99.90
15355;DHT22;7777;52.254;9.618;2023-03-23T02:50:07;12.50;99.90
15355;DHT22;7777;52.254;9.618;2023-03-23T02:52:36;12.50;99.90
15355;DHT22;7777;52.254;9.618;2023-03-23T02:55:04;12.40;99.90
15355;DHT22;7777;52.254;9.618;2023-03-23T02:57:31;12.40;99.90
15355;DHT22;7777;52.254;9.618;2023-03-23T02:59:57;12.50;99.90
15355;DHT22;7777;52.254;9.618;2023-03-23T03:02:25;12.40;99.90
15355;DHT22;7777;52.254;9.618;2023-03-23T03:05:17;12.40;99.90
15355;DHT22;7777;52.254;9.618;2023-03-23T03:11:08;12.40;99.90
15355;DHT22;7777;52.254;9.618;2023-03-23T03:13:55;12.40;99.90
15355;DHT22;7777;52.254;9.618;2023-03-23T03:19:04;12.40;99.90
15355;DHT22;7777;52.254;9.618;2023-03-23T03:21:36;12.50;99.90
15355;DHT22;7777;52.254;9.618;2023-03-23T03:24:04;12.50;99.90
15355;DHT22;7777;52.254;9.618;2023-03-23T03:26:34;12.40;99.90
15355;DHT22;7777;52.254;9.618;2023-03-23T03:29:01;12.40;99.90
15355;DHT22;7777;52.254;9.618;2023-03-23T03:31:32;12.40;99.90
15355;DHT22;7777;52.254;9.618;2023-03-23T03:34:02;12.40;99.90
15355;DHT22;7777;52.254;9.618;2023-03-23T03:36:31;12.40;99.90
15355;DHT22;7777;52.254;9.618;2023-03-23T03:39:02;12.30;99.90
15355;DHT22;7777;52.254;9.618;2023-03-23T03:41:34;12.30;99.90
15355;DHT22;7777;52.254;9.618;2023-03-23T03:44:01;12.30;99.90
15355;DHT22;7777;52.254;9.618;2023-03-23T03:46:32;12.30;99.90
15355;DHT22;7777;52.254;9.618;2023-03-23T03:48:59;12.30;99.90
15355;DHT22;7777;52.254;9.618;2023-03-23T03:51:27;12.30;99.90
15355;DHT22;7777;52.254;9.618;2023-03-23T03:53:53;12.30;99.90
15355;DHT22;7777;52.254;9.618;2023-03-23T03:56:19;12.30;99.90
15355;DHT22;7777;52.254;9.618;2023-03-23T03:58:48;12.20;99.90
15355;DHT22;7777;52.254;9.618;2023-03-23T04:01:14;12.20;99.90
15355;DHT22;7777;52.254;9.618;2023-03-23T04:03:41;12.30;99.90
15355;DHT22;7777;52.254;9.618;2023-03-23T04:06:09;12.20;99.90
15355;DHT22;7777;52.254;9.618;2023-03-23T04:08:36;12.20;99.90
15355;DHT22;7777;52.254;9.618;2023-03-23T04:11:09;12.20;99.90
15355;DHT22;7777;52.254;9.618;2023-03-23T04:13:37;12.20;99.90
15355;DHT22;7777;52.254;9.618;2023-03-23T04:16:04;12.20;99.90
15355;DHT22;7777;52.254;9.618;2023-03-23T04:18:30;12.20;99.90
15355;DHT22;7777;52.254;9.618;2023-03-23T04:20:58;12.20;99.90
15355;DHT22;7777;52.254;9.618;2023-03-23T04:23:25;12.20;99.90
15355;DHT22;7777;52.254;9.618;2023-03-23T04:25:53;12.20;99.90
15355;DHT22;7777;52.254;9.618;2023-03-23T04:28:22;12.20;99.90
15355;DHT22;7777;52.254;9.618;2023-03-23T04:30:51;12.30;99.90
15355;DHT22;7777;52.254;9.618;2023-03-23T04:33:22;12.20;99.90
15355;DHT22;7777;52.254;9.618;2023-03-23T04:35:51;12.30;99.90
15355;DHT22;7777;52.254;9.618;2023-03-23T04:38:18;12.30;99.90
15355;DHT22;7777;52.254;9.618;2023-03-23T04:40:46;12.20;99.90
15355;DHT22;7777;52.254;9.618;2023-03-23T04:43:13;12.20;99.90
15355;DHT22;7777;52.254;9.618;2023-03-23T04:45:40;12.20;99.90
15355;DHT22;7777;52.254;9.618;2023-03-23T04:48:10;12.20;99.90
15355;DHT22;7777;52.254;9.618;2023-03-23T04:50:37;12.20;99.90
15355;DHT22;7777;52.254;9.618;2023-03-23T04:53:04;12.20;99.90
15355;DHT22;7777;52.254;9.618;2023-03-23T04:55:35;12.20;99.90
15355;DHT22;7777;52.254;9.618;2023-03-23T04:58:05;12.30;99.90
15355;DHT22;7777;52.254;9.618;2023-03-23T05:00:33;12.20;99.90
15355;DHT22;7777;52.254;9.618;2023-03-23T05:02:59;12.20;99.90
15355;DHT22;7777;52.254;9.618;2023-03-23T05:05:26;12.30;99.90
15355;DHT22;7777;52.254;9.618;2023-03-23T05:07:54;12.20;99.90
15355;DHT22;7777;52.254;9.618;2023-03-23T05:10:20;12.20;99.90
15355;DHT22;7777;52.254;9.618;2023-03-23T05:12:46;12.20;99.90
15355;DHT22;7777;52.254;9.618;2023-03-23T05:15:14;12.20;99.90
15355;DHT22;7777;52.254;9.618;2023-03-23T05:17:41;12.20;99.90
15355;DHT22;7777;52.254;9.618;2023-03-23T05:20:12;12.20;99.90
15355;DHT22;7777;52.254;9.618;2023-03-23T05:22:40;12.20;99.90
15355;DHT22;7777;52.254;9.618;2023-03-23T05:25:07;12.30;99.90
15355;DHT22;7777;52.254;9.618;2023-03-23T05:27:37;12.20;99.90
15355;DHT22;7777;52.254;9.618;2023-03-23T05:30:04;12.20;99.90
15355;DHT22;7777;52.254;9.618;2023-03-23T05:32:31;12.30;99.90
15355;DHT22;7777;52.254;9.618;2023-03-23T05:35:01;12.30;99.90
15355;DHT22;7777;52.254;9.618;2023-03-23T05:37:29;12.30;99.90
15355;DHT22;7777;52.254;9.618;2023-03-23T05:39:58;12.30;99.90
15355;DHT22;7777;52.254;9.618;2023-03-23T05:42:34;12.20;99.90
15355;DHT22;7777;52.254;9.618;2023-03-23T05:45:02;12.30;99.90
15355;DHT22;7777;52.254;9.618;2023-03-23T05:47:28;12.30;99.90
15355;DHT22;7777;52.254;9.618;2023-03-23T05:49:56;12.30;99.90
15355;DHT22;7777;52.254;9.618;2023-03-23T05:52:31;12.20;99.90
15355;DHT22;7777;52.254;9.618;2023-03-23T05:54:58;12.30;99.90
15355;DHT22;7777;52.254;9.618;2023-03-23T05:57:24;12.30;99.90
15355;DHT22;7777;52.254;9.618;2023-03-23T05:59:50;12.30;99.90
15355;DHT22;7777;52.254;9.618;2023-03-23T06:02:16;12.30;99.90
15355;DHT22;7777;52.254;9.618;2023-03-23T06:04:42;12.30;99.90
15355;DHT22;7777;52.254;9.618;2023-03-23T06:07:08;12.30;99.90
15355;DHT22;7777;52.254;9.618;2023-03-23T06:09:39;12.30;99.90
15355;DHT22;7777;52.254;9.618;2023-03-23T06:12:05;12.30;99.90
15355;DHT22;7777;52.254;9.618;2023-03-23T06:14:32;12.30;99.90
15355;DHT22;7777;52.254;9.618;2023-03-23T06:16:59;12.30;99.90
15355;DHT22;7777;52.254;9.618;2023-03-23T06:19:25;12.30;99.90
15355;DHT22;7777;52.254;9.618;2023-03-23T06:21:53;12.30;99.90
15355;DHT22;7777;52.254;9.618;2023-03-23T06:24:20;12.40;99.90
15355;DHT22;7777;52.254;9.618;2023-03-23T06:26:47;12.40;99.90
15355;DHT22;7777;52.254;9.618;2023-03-23T06:29:14;12.40;99.90
15355;DHT22;7777;52.254;9.618;2023-03-23T06:31:46;12.40;99.90
15355;DHT22;7777;52.254;9.618;2023-03-23T06:34:13;12.40;99.90
15355;DHT22;7777;52.254;9.618;2023-03-23T06:36:40;12.40;99.90
15355;DHT22;7777;52.254;9.618;2023-03-23T06:39:05;12.40;99.90
15355;DHT22;7777;52.254;9.618;2023-03-23T06:41:32;12.50;99.90
15355;DHT22;7777;52.254;9.618;2023-03-23T06:43:59;12.50;99.90
15355;DHT22;7777;52.254;9.618;2023-03-23T06:46:32;12.50;99.90
15355;DHT22;7777;52.254;9.618;2023-03-23T06:49:00;12.50;99.90
15355;DHT22;7777;52.254;9.618;2023-03-23T06:51:26;12.50;99.90
15355;DHT22;7777;52.254;9.618;2023-03-23T06:53:52;12.50;99.90
15355;DHT22;7777;52.254;9.618;2023-03-23T06:56:18;12.60;99.90
15355;DHT22;7777;52.254;9.618;2023-03-23T06:58:43;12.60;99.90
15355;DHT22;7777;52.254;9.618;2023-03-23T07:01:11;12.60;99.90
15355;DHT22;7777;52.254;9.618;2023-03-23T07:03:38;12.60;99.90
15355;DHT22;7777;52.254;9.618;2023-03-23T07:06:04;12.60;99.90
15355;DHT22;7777;52.254;9.618;2023-03-23T07:08:30;12.60;99.90
15355;DHT22;7777;52.254;9.618;2023-03-23T07:10:56;12.60;99.90
15355;DHT22;7777;52.254;9.618;2023-03-23T07:13:22;12.70;99.90
15355;DHT22;7777;52.254;9.618;2023-03-23T07:15:48;12.70;99.90
15355;DHT22;7777;52.254;9.618;2023-03-23T07:18:16;12.70;99.90
15355;DHT22;7777;52.254;9.618;2023-03-23T07:20:41;12.70;99.90
15355;DHT22;7777;52.254;9.618;2023-03-23T07:23:07;12.70;99.90
15355;DHT22;7777;52.254;9.618;2023-03-23T07:25:35;12.70;99.90
15355;DHT22;7777;52.254;9.618;2023-03-23T07:28:02;12.80;99.90
15355;DHT22;7777;52.254;9.618;2023-03-23T07:30:29;12.80;99.90
15355;DHT22;7777;52.254;9.618;2023-03-23T07:32:56;12.90;99.90
15355;DHT22;7777;52.254;9.618;2023-03-23T07:35:23;12.90;99.90
15355;DHT22;7777;52.254;9.618;2023-03-23T07:37:49;12.90;99.90
15355;DHT22;7777;52.254;9.618;2023-03-23T07:40:17;12.90;99.90
15355;DHT22;7777;52.254;9.618;2023-03-23T07:42:45;12.90;99.90
15355;DHT22;7777;52.254;9.618;2023-03-23T07:45:12;13.00;99.90
15355;DHT22;7777;52.254;9.618;2023-03-23T07:47:39;13.00;99.90
15355;DHT22;7777;52.254;9.618;2023-03-23T07:50:07;13.00;99.90
15355;DHT22;7777;52.254;9.618;2023-03-23T07:52:34;13.10;99.90
15355;DHT22;7777;52.254;9.618;2023-03-23T07:55:02;13.10;99.90
15355;DHT22;7777;52.254;9.618;2023-03-23T07:57:29;13.10;99.90
15355;DHT22;7777;52.254;9.618;2023-03-23T07:59:56;13.20;99.90
15355;DHT22;7777;52.254;9.618;2023-03-23T08:02:23;13.20;99.90
15355;DHT22;7777;52.254;9.618;2023-03-23T08:04:49;13.20;99.90
15355;DHT22;7777;52.254;9.618;2023-03-23T08:07:18;13.30;99.90
15355;DHT22;7777;52.254;9.618;2023-03-23T08:09:44;13.30;99.90
15355;DHT22;7777;52.254;9.618;2023-03-23T08:12:10;13.30;99.90
15355;DHT22;7777;52.254;9.618;2023-03-23T08:14:36;13.40;99.90
15355;DHT22;7777;52.254;9.618;2023-03-23T08:17:02;13.40;99.90
15355;DHT22;7777;52.254;9.618;2023-03-23T08:19:28;13.50;99.90
15355;DHT22;7777;52.254;9.618;2023-03-23T08:21:53;13.50;99.90
15355;DHT22;7777;52.254;9.618;2023-03-23T08:24:27;13.50;99.90
15355;DHT22;7777;52.254;9.618;2023-03-23T08:26:53;13.50;99.90
15355;DHT22;7777;52.254;9.618;2023-03-23T08:29:18;13.50;99.90
15355;DHT22;7777;52.254;9.618;2023-03-23T08:31:44;13.60;99.90
15355;DHT22;7777;52.254;9.618;2023-03-23T08:34:10;13.60;99.90
15355;DHT22;7777;52.254;9.618;2023-03-23T08:36:36;13.60;99.90
15355;DHT22;7777;52.254;9.618;2023-03-23T08:39:03;13.60;99.90
15355;DHT22;7777;52.254;9.618;2023-03-23T08:41:31;13.60;99.90
15355;DHT22;7777;52.254;9.618;2023-03-23T08:43:57;13.60;99.90
15355;DHT22;7777;52.254;9.618;2023-03-23T08:46:23;13.70;99.90
15355;DHT22;7777;52.254;9.618;2023-03-23T08:48:49;13.70;99.90
15355;DHT22;7777;52.254;9.618;2023-03-23T08:51:15;13.70;99.90
15355;DHT22;7777;52.254;9.618;2023-03-23T08:53:40;13.70;99.90
15355;DHT22;7777;52.254;9.618;2023-03-23T08:56:09;13.70;99.90
15355;DHT22;7777;52.254;9.618;2023-03-23T08:58:36;13.80;99.90
15355;DHT22;7777;52.254;9.618;2023-03-23T09:01:04;13.80;99.90
15355;DHT22;7777;52.254;9.618;2023-03-23T09:03:32;13.80;99.90
15355;DHT22;7777;52.254;9.618;2023-03-23T09:06:01;13.80;99.90
15355;DHT22;7777;52.254;9.618;2023-03-23T09:08:28;13.80;99.90
15355;DHT22;7777;52.254;9.618;2023-03-23T09:11:06;13.90;99.90
15355;DHT22;7777;52.254;9.618;2023-03-23T09:13:35;13.90;99.90
15355;DHT22;7777;52.254;9.618;2023-03-23T09:16:01;13.80;99.90
15355;DHT22;7777;52.254;9.618;2023-03-23T09:18:28;13.90;99.90
15355;DHT22;7777;52.254;9.618;2023-03-23T09:20:54;13.90;99.90
15355;DHT22;7777;52.254;9.618;2023-03-23T09:23:20;13.90;99.90
15355;DHT22;7777;52.254;9.618;2023-03-23T09:25:46;14.00;99.90
15355;DHT22;7777;52.254;9.618;2023-03-23T09:28:13;13.90;99.90
15355;DHT22;7777;52.254;9.618;2023-03-23T09:30:40;14.00;99.90
15355;DHT22;7777;52.254;9.618;2023-03-23T09:33:06;14.00;99.90
15355;DHT22;7777;52.254;9.618;2023-03-23T09:35:34;14.00;99.90
15355;DHT22;7777;52.254;9.618;2023-03-23T09:38:02;14.00;99.90
15355;DHT22;7777;52.254;9.618;2023-03-23T09:40:33;14.10;99.90
15355;DHT22;7777;52.254;9.618;2023-03-23T09:43:38;14.10;99.90
15355;DHT22;7777;52.254;9.618;2023-03-23T09:46:34;14.10;99.90
15355;DHT22;7777;52.254;9.618;2023-03-23T09:49:29;14.10;99.90
15355;DHT22;7777;52.254;9.618;2023-03-23T09:52:17;14.10;99.90
15355;DHT22;7777;52.254;9.618;2023-03-23T09:54:49;14.10;99.90
15355;DHT22;7777;52.254;9.618;2023-03-23T10:05:50;14.20;99.90
15355;DHT22;7777;52.254;9.618;2023-03-23T10:08:19;14.20;99.90
15355;DHT22;7777;52.254;9.618;2023-03-23T10:11:08;14.20;99.90
15355;DHT22;7777;52.254;9.618;2023-03-23T10:13:51;14.20;99.90
15355;DHT22;7777;52.254;9.618;2023-03-23T10:16:26;14.20;99.90
15355;DHT22;7777;52.254;9.618;2023-03-23T10:21:42;14.20;99.90
15355;DHT22;7777;52.254;9.618;2023-03-23T10:24:15;14.20;99.90
15355;DHT22;7777;52.254;9.618;2023-03-23T10:26:46;14.30;99.90
15355;DHT22;7777;52.254;9.618;2023-03-23T10:29:29;14.20;99.90
15355;DHT22;7777;52.254;9.618;2023-03-23T10:32:34;14.20;99.90
15355;DHT22;7777;52.254;9.618;2023-03-23T10:35:17;14.30;99.90
15355;DHT22;7777;52.254;9.618;2023-03-23T10:37:53;14.30;99.90
15355;DHT22;7777;52.254;9.618;2023-03-23T10:40:28;14.30;99.90
15355;DHT22;7777;52.254;9.618;2023-03-23T10:42:56;14.30;99.90
15355;DHT22;7777;52.254;9.618;2023-03-23T10:45:28;14.30;99.90
15355;DHT22;7777;52.254;9.618;2023-03-23T10:51:03;14.40;99.90
15355;DHT22;7777;52.254;9.618;2023-03-23T10:53:34;14.50;99.90
15355;DHT22;7777;52.254;9.618;2023-03-23T10:56:04;14.60;99.90
15355;DHT22;7777;52.254;9.618;2023-03-23T10:58:33;14.70;99.90
15355;DHT22;7777;52.254;9.618;2023-03-23T11:01:01;14.70;99.90
15355;DHT22;7777;52.254;9.618;2023-03-23T11:03:42;14.90;99.90
15355;DHT22;7777;52.254;9.618;2023-03-23T11:06:12;14.90;99.90
15355;DHT22;7777;52.254;9.618;2023-03-23T11:11:28;15.10;99.90
15355;DHT22;7777;52.254;9.618;2023-03-23T11:14:01;15.20;99.90
15355;DHT22;7777;52.254;9.618;2023-03-23T11:16:33;15.20;99.90
15355;DHT22;7777;52.254;9.618;2023-03-23T11:19:11;15.20;99.90
15355;DHT22;7777;52.254;9.618;2023-03-23T11:21:39;15.20;99.90
15355;DHT22;7777;52.254;9.618;2023-03-23T11:24:08;15.30;99.90
15355;DHT22;7777;52.254;9.618;2023-03-23T11:26:35;15.40;99.90
15355;DHT22;7777;52.254;9.618;2023-03-23T11:29:18;15.40;99.90
15355;DHT22;7777;52.254;9.618;2023-03-23T11:34:26;15.50;99.90
15355;DHT22;7777;52.254;9.618;2023-03-23T11:37:07;15.50;99.90
15355;DHT22;7777;52.254;9.618;2023-03-23T11:42:23;15.50;99.90
15355;DHT22;7777;52.254;9.618;2023-03-23T11:45:14;15.60;99.90
15355;DHT22;7777;52.254;9.618;2023-03-23T11:50:54;15.50;99.90
15355;DHT22;7777;52.254;9.618;2023-03-23T11:56:31;15.40;99.90
15355;DHT22;7777;52.254;9.618;2023-03-23T11:58:59;15.40;99.90
15355;DHT22;7777;52.254;9.618;2023-03-23T12:01:43;15.40;99.90
15355;DHT22;7777;52.254;9.618;2023-03-23T12:10:58;15.20;99.90
15355;DHT22;7777;52.254;9.618;2023-03-23T12:16:48;15.00;99.90
15355;DHT22;7777;52.254;9.618;2023-03-23T12:22:21;14.70;99.90
15355;DHT22;7777;52.254;9.618;2023-03-23T12:39:50;14.00;99.90
15355;DHT22;7777;52.254;9.618;2023-03-23T12:47:46;13.60;99.90
15355;DHT22;7777;52.254;9.618;2023-03-23T12:50:26;13.50;99.90
15355;DHT22;7777;52.254;9.618;2023-03-23T12:53:20;13.30;99.90
15355;DHT22;7777;52.254;9.618;2023-03-23T12:56:14;13.20;99.90
15355;DHT22;7777;52.254;9.618;2023-03-23T12:59:07;13.20;99.90
15355;DHT22;7777;52.254;9.618;2023-03-23T13:01:52;13.20;99.90
15355;DHT22;7777;52.254;9.618;2023-03-23T13:04:34;13.10;99.90
15355;DHT22;7777;52.254;9.618;2023-03-23T13:07:06;13.00;99.90
15355;DHT22;7777;52.254;9.618;2023-03-23T13:09:53;13.00;99.90
15355;DHT22;7777;52.254;9.618;2023-03-23T13:12:30;12.90;99.90
15355;DHT22;7777;52.254;9.618;2023-03-23T13:15:09;12.90;99.90
15355;DHT22;7777;52.254;9.618;2023-03-23T13:17:58;12.90;99.90
15355;DHT22;7777;52.254;9.618;2023-03-23T13:23:32;12.90;99.90
15355;DHT22;7777;52.254;9.618;2023-03-23T13:26:11;12.90;99.90
15355;DHT22;7777;52.254;9.618;2023-03-23T13:31:33;12.90;99.90
15355;DHT22;7777;52.254;9.618;2023-03-23T13:34:22;12.90;99.90
15355;DHT22;7777;52.254;9.618;2023-03-23T13:37:00;13.00;99.90
15355;DHT22;7777;52.254;9.618;2023-03-23T13:39:35;12.90;99.90
15355;DHT22;7777;52.254;9.618;2023-03-23T13:47:35;12.90;99.90
15355;DHT22;7777;52.254;9.618;2023-03-23T13:55:29;12.80;99.90
15355;DHT22;7777;52.254;9.618;2023-03-23T13:58:27;12.70;99.90
15355;DHT22;7777;52.254;9.618;2023-03-23T14:03:39;12.60;99.90
15355;DHT22;7777;52.254;9.618;2023-03-23T14:06:20;12.60;99.90
15355;DHT22;7777;52.254;9.618;2023-03-23T14:08:53;12.60;99.90
15355;DHT22;7777;52.254;9.618;2023-03-23T14:11:30;12.50;99.90
15355;DHT22;7777;52.254;9.618;2023-03-23T14:14:07;12.40;99.90
15355;DHT22;7777;52.254;9.618;2023-03-23T14:17:26;12.40;99.90
15355;DHT22;7777;52.254;9.618;2023-03-23T14:19:54;12.30;99.90
15355;DHT22;7777;52.254;9.618;2023-03-23T14:22:33;12.30;99.90
15355;DHT22;7777;52.254;9.618;2023-03-23T14:27:39;12.20;99.90
15355;DHT22;7777;52.254;9.618;2023-03-23T14:30:12;12.20;99.90
15355;DHT22;7777;52.254;9.618;2023-03-23T14:32:40;12.30;99.90
15355;DHT22;7777;52.254;9.618;2023-03-23T14:35:13;12.20;99.90
15355;DHT22;7777;52.254;9.618;2023-03-23T14:37:43;12.20;99.90
15355;DHT22;7777;52.254;9.618;2023-03-23T14:40:15;12.20;99.90
15355;DHT22;7777;52.254;9.618;2023-03-23T14:42:42;12.20;99.90
15355;DHT22;7777;52.254;9.618;2023-03-23T14:45:15;12.20;99.90
15355;DHT22;7777;52.254;9.618;2023-03-23T14:47:45;12.20;99.90
15355;DHT22;7777;52.254;9.618;2023-03-23T14:50:48;12.10;99.90
15355;DHT22;7777;52.254;9.618;2023-03-23T14:53:22;12.10;99.90
15355;DHT22;7777;52.254;9.618;2023-03-23T14:56:02;12.10;99.90
15355;DHT22;7777;52.254;9.618;2023-03-23T14:58:38;12.10;99.90
15355;DHT22;7777;52.254;9.618;2023-03-23T15:01:10;12.10;99.90
15355;DHT22;7777;52.254;9.618;2023-03-23T15:03:41;12.00;99.90
15355;DHT22;7777;52.254;9.618;2023-03-23T15:06:24;12.10;99.90
15355;DHT22;7777;52.254;9.618;2023-03-23T15:08:54;12.10;99.90
15355;DHT22;7777;52.254;9.618;2023-03-23T15:11:27;12.10;99.90
15355;DHT22;7777;52.254;9.618;2023-03-23T15:14:00;12.10;99.90
15355;DHT22;7777;52.254;9.618;2023-03-23T15:16:33;12.20;99.90
15355;DHT22;7777;52.254;9.618;2023-03-23T15:19:03;12.20;99.90
15355;DHT22;7777;52.254;9.618;2023-03-23T15:21:36;12.10;99.90
15355;DHT22;7777;52.254;9.618;2023-03-23T15:24:38;12.10;99.90
15355;DHT22;7777;52.254;9.618;2023-03-23T15:27:23;12.10;99.90
15355;DHT22;7777;52.254;9.618;2023-03-23T15:29:59;12.10;99.90
15355;DHT22;7777;52.254;9.618;2023-03-23T15:32:42;12.20;99.90
15355;DHT22;7777;52.254;9.618;2023-03-23T15:35:16;12.10;99.90
15355;DHT22;7777;52.254;9.618;2023-03-23T15:37:46;12.20;99.90
15355;DHT22;7777;52.254;9.618;2023-03-23T15:40:24;12.20;99.90
15355;DHT22;7777;52.254;9.618;2023-03-23T15:43:18;12.20;99.90
15355;DHT22;7777;52.254;9.618;2023-03-23T15:46:19;12.20;99.90
15355;DHT22;7777;52.254;9.618;2023-03-23T15:51:27;12.20;99.90
15355;DHT22;7777;52.254;9.618;2023-03-23T15:53:55;12.30;99.90
15355;DHT22;7777;52.254;9.618;2023-03-23T15:56:22;12.30;99.90
15355;DHT22;7777;52.254;9.618;2023-03-23T15:58:49;12.40;99.90
15355;DHT22;7777;52.254;9.618;2023-03-23T16:01:18;12.40;99.90
15355;DHT22;7777;52.254;9.618;2023-03-23T16:06:22;12.40;99.90
15355;DHT22;7777;52.254;9.618;2023-03-23T16:08:48;12.40;99.90
15355;DHT22;7777;52.254;9.618;2023-03-23T16:11:16;12.40;99.90
15355;DHT22;7777;52.254;9.618;2023-03-23T16:13:45;12.40;99.90
15355;DHT22;7777;52.254;9.618;2023-03-23T16:16:17;12.40;99.90
15355;DHT22;7777;52.254;9.618;2023-03-23T16:18:46;12.40;99.90
15355;DHT22;7777;52.254;9.618;2023-03-23T16:21:12;12.40;99.90
15355;DHT22;7777;52.254;9.618;2023-03-23T16:23:47;12.40;99.90
15355;DHT22;7777;52.254;9.618;2023-03-23T16:26:19;12.40;99.90
15355;DHT22;7777;52.254;9.618;2023-03-23T16:28:52;12.40;99.90
15355;DHT22;7777;52.254;9.618;2023-03-23T16:31:18;12.40;99.90
15355;DHT22;7777;52.254;9.618;2023-03-23T16:33:44;12.40;99.90
15355;DHT22;7777;52.254;9.618;2023-03-23T16:36:13;12.40;99.90
15355;DHT22;7777;52.254;9.618;2023-03-23T16:38:44;12.40;99.90
15355;DHT22;7777;52.254;9.618;2023-03-23T16:41:12;12.40;99.90
15355;DHT22;7777;52.254;9.618;2023-03-23T16:43:54;12.40;99.90
15355;DHT22;7777;52.254;9.618;2023-03-23T16:46:21;12.40;99.90
15355;DHT22;7777;52.254;9.618;2023-03-23T16:48:55;12.40;99.90
15355;DHT22;7777;52.254;9.618;2023-03-23T16:51:20;12.40;99.90
15355;DHT22;7777;52.254;9.618;2023-03-23T16:53:46;12.40;99.90
15355;DHT22;7777;52.254;9.618;2023-03-23T16:56:12;12.40;99.90
15355;DHT22;7777;52.254;9.618;2023-03-23T16:58:37;12.40;99.90
15355;DHT22;7777;52.254;9.618;2023-03-23T17:01:04;12.40;99.90
15355;DHT22;7777;52.254;9.618;2023-03-23T17:03:30;12.40;99.90
15355;DHT22;7777;52.254;9.618;2023-03-23T17:05:58;12.40;99.90
15355;DHT22;7777;52.254;9.618;2023-03-23T17:08:26;12.40;99.90
15355;DHT22;7777;52.254;9.618;2023-03-23T17:10:51;12.40;99.90
15355;DHT22;7777;52.254;9.618;2023-03-23T17:13:17;12.50;99.90
15355;DHT22;7777;52.254;9.618;2023-03-23T17:15:44;12.40;99.90
15355;DHT22;7777;52.254;9.618;2023-03-23T17:18:10;12.40;99.90
15355;DHT22;7777;52.254;9.618;2023-03-23T17:20:37;12.50;99.90
15355;DHT22;7777;52.254;9.618;2023-03-23T17:23:03;12.40;99.90
15355;DHT22;7777;52.254;9.618;2023-03-23T17:25:29;12.40;99.90
15355;DHT22;7777;52.254;9.618;2023-03-23T17:27:55;12.40;99.90
15355;DHT22;7777;52.254;9.618;2023-03-23T17:30:21;12.50;99.90
15355;DHT22;7777;52.254;9.618;2023-03-23T17:32:53;12.50;99.90
15355;DHT22;7777;52.254;9.618;2023-03-23T17:35:19;12.50;99.90
15355;DHT22;7777;52.254;9.618;2023-03-23T17:37:45;12.40;99.90
15355;DHT22;7777;52.254;9.618;2023-03-23T17:40:11;12.50;99.90
15355;DHT22;7777;52.254;9.618;2023-03-23T17:42:38;12.50;99.90
15355;DHT22;7777;52.254;9.618;2023-03-23T17:45:05;12.50;99.90
15355;DHT22;7777;52.254;9.618;2023-03-23T17:47:32;12.40;99.90
15355;DHT22;7777;52.254;9.618;2023-03-23T17:49:58;12.40;99.90
15355;DHT22;7777;52.254;9.618;2023-03-23T17:52:24;12.40;99.90
15355;DHT22;7777;52.254;9.618;2023-03-23T17:54:50;12.40;99.90
15355;DHT22;7777;52.254;9.618;2023-03-23T17:57:16;12.40;99.90